MGGTMSLP

Guest
Details From MGGT - La Aurora Intl
To MSLP - Monsenor Oscar Romero Intl
Flight Number -
Tags generated
Created
Modified
Stats Distance 110 nm / 203 km
Max Altitude 18,000 ft / 5,486 m
Waypoints 3
Social Downloads 0
Likes 0
Share

Download

Looking for another format? Having issues loading an existing format? Contact us
Advertisement - Login to hide

Notes

Basic altitude profile: - Ascent Rate: 2500ft/min - Ascent Speed: 230kts - Cruise Altitude: 23000ft - Cruise Speed: 330kts - Descent Rate: 2500ft/min - Descent Speed: 230kts Options: - Use NATs: yes - Use PACOTS: yes - Use low airways: yes - Use high airways: yes

Route

MGGT OLISU MSLP

ID Type Via Altitude (ft/m) Position (lat/lon) Dist (leg/tot) Name
O MGGT APT - 0 / 0 14.58330 / -90.52750 - / 0 nm La Aurora Intl
OLISU FIX - 18,000 / 5,486 13.85410 / -89.58700 70 / 70 nm
O MSLP APT - 0 / 0 13.44090 / -89.05570 39 / 109 nm Monsenor Oscar Romero Intl

Altitude Profile

Advertisement - Login to hide

MGGT

Details ICAO MGGT (GUA)
Name La Aurora Intl
Region Guatemala
Timezone America/Guatemala (UTC-6.0)
Stats Elevation 4,952 ft / 1,509 m (AMSL)
Location 14.583300° -90.527500°
Runways 1
Magnetic Variation 0.196° E

METAR

MGGT 161400Z 02012KT 9999 SCT018 20/15 Q1022 A3018

Decode

TAF

TAF MGGT 161100Z 1612/1712 02014KT 9999 FEW016 TX29/1620Z TN16/1612Z BECMG 1614/1616 FEW018 BECMG 1618/1620 18008KT 8000 FEW020 BECMG 1700/1702 00000KT CAVOK TEMPO 1705/1712 5000 BR FEW016

Decode

Departure Runways

ID Width Length Bearing (true/mag) Surface Threshold Overrun Markings Lighting
02 197 ft / 60 m 9,809 ft / 2,990 m 17.28° / 17.08° ASPHALT 0 ft / 0 m 184 ft / 56 m PREC-APP EDGE THRESHOLD MALS REIL-OMNI
20 197 ft / 60 m 9,809 ft / 2,990 m 197.28° / 197.09° ASPHALT 702 ft / 214 m 223 ft / 68 m PREC-APP EDGE THRESHOLD MALS REIL-OMNI

MSLP

Details ICAO MSLP (SAL)
Name Monsenor Oscar Romero Intl
Region El Salvador
Timezone America/El_Salvador (UTC-6.0)
Stats Elevation 101 ft / 31 m (AMSL)
Location 13.440900° -89.055700°
Runways 1
Magnetic Variation 0.437° W

METAR

MSLP 161419Z 04006KT 360V090 9999 FEW077 32/21 Q1011 NOSIG

Decode

TAF

Not found

Destination Runways

ID Width Length Bearing (true/mag) Surface Threshold Overrun Markings Lighting
07 151 ft / 46 m 10,508 ft / 3,203 m 69.89° / 70.32° ASPHALT 0 ft / 0 m 190 ft / 58 m PREC-APP CENTERLINE EDGE THRESHOLD ALSF-I REIL-OMNI
25 151 ft / 46 m 10,508 ft / 3,203 m 249.89° / 250.33° ASPHALT 0 ft / 0 m 200 ft / 61 m PREC-APP CENTERLINE EDGE THRESHOLD SSALF REIL-OMNI

Approach Navaids

Runway Type Ident Frequency Range Bearing (true/mag) Slope Elevation
07 OM OM - - 69.87° / 70.30 ° - 101 ft / 31 m (AMSL)
07 GS CUS 110.30 MHz 10 nm / 19 km 70.73° / 71.17 ° 2.50° 78 ft / 24 m (AMSL)
07 MM MM - - 69.87° / 70.30 ° - 101 ft / 31 m (AMSL)
07 LOC-ILS CUS 110.30 MHz 18 nm / 33 km 69.76° / 70.20 ° - 71 ft / 22 m (AMSL)

Popular Alternatives